createdAt,value
2018-10-16T00:01:25.052Z,12.63
2018-10-16T00:03:53.656Z,15.43
2018-10-16T00:06:21.828Z,14.37
2018-10-16T00:08:49.940Z,13.43
2018-10-16T00:11:18.082Z,12.60
2018-10-16T00:13:46.186Z,12.03
2018-10-16T00:16:14.308Z,15.13
2018-10-16T00:18:42.438Z,13.13
2018-10-16T00:21:10.587Z,15.90
2018-10-16T00:23:38.753Z,15.83
2018-10-16T00:26:06.980Z,16.67
2018-10-16T00:28:35.288Z,11.00
2018-10-16T00:31:03.423Z,13.67
2018-10-16T00:33:31.667Z,14.27
2018-10-16T00:35:59.821Z,13.17
2018-10-16T00:38:27.971Z,13.93
2018-10-16T00:40:56.099Z,12.60
2018-10-16T00:43:24.235Z,13.33
2018-10-16T00:45:52.397Z,14.70
2018-10-16T00:48:20.527Z,11.83
2018-10-16T00:50:48.655Z,11.67
2018-10-16T00:53:16.767Z,11.67
2018-10-16T00:55:44.905Z,13.27
2018-10-16T00:58:13.019Z,11.60
2018-10-16T01:00:41.161Z,13.87
2018-10-16T01:03:09.528Z,13.57
2018-10-16T01:05:37.849Z,12.60
2018-10-16T01:08:06.273Z,14.70
2018-10-16T01:10:34.435Z,15.63
2018-10-16T01:13:03.045Z,13.30
2018-10-16T01:15:31.177Z,12.07
2018-10-16T01:18:00.349Z,12.13
2018-10-16T01:20:29.582Z,11.60
2018-10-16T01:22:58.168Z,16.47
2018-10-16T01:25:26.422Z,16.57
2018-10-16T01:27:54.618Z,12.13
2018-10-16T01:30:22.759Z,12.20
2018-10-16T01:32:50.889Z,11.33
2018-10-16T01:35:19.079Z,14.13
2018-10-16T01:37:47.248Z,14.27
2018-10-16T01:40:15.550Z,11.50
2018-10-16T01:42:43.690Z,11.30
2018-10-16T01:45:11.863Z,16.73
2018-10-16T01:47:40.022Z,14.30
2018-10-16T01:50:08.605Z,10.70
2018-10-16T01:52:36.774Z,12.53
2018-10-16T01:55:05.192Z,12.47
2018-10-16T01:57:33.333Z,12.87
2018-10-16T02:00:01.503Z,13.57
2018-10-16T02:02:29.697Z,13.57
2018-10-16T02:04:58.017Z,16.70
2018-10-16T02:07:26.226Z,12.10
2018-10-16T02:09:54.378Z,13.83
2018-10-16T02:12:22.543Z,12.40
2018-10-16T02:14:50.696Z,11.13
2018-10-16T02:17:18.812Z,12.37
2018-10-16T02:19:47.009Z,12.33
2018-10-16T02:22:15.151Z,11.67
2018-10-16T02:24:43.418Z,11.77
2018-10-16T02:27:11.580Z,11.87
2018-10-16T02:29:39.705Z,11.07
2018-10-16T02:32:14.527Z,12.83
2018-10-16T02:34:42.609Z,14.00
2018-10-16T02:37:10.757Z,13.53
2018-10-16T02:39:39.385Z,14.10
2018-10-16T02:42:07.902Z,13.13
2018-10-16T02:44:36.039Z,13.33
2018-10-16T02:47:04.281Z,12.17
2018-10-16T02:49:32.581Z,12.13
2018-10-16T02:52:00.918Z,14.97
2018-10-16T02:54:29.023Z,12.83
2018-10-16T02:56:57.321Z,11.87
2018-10-16T02:59:25.651Z,13.87
2018-10-16T03:01:53.947Z,13.93
2018-10-16T03:04:23.101Z,12.10
2018-10-16T03:06:51.259Z,13.40
2018-10-16T03:09:19.406Z,12.67
2018-10-16T03:11:47.614Z,13.50
2018-10-16T03:14:15.800Z,13.17
2018-10-16T03:16:44.395Z,12.37
2018-10-16T03:19:12.552Z,12.57
2018-10-16T03:21:40.931Z,13.17
2018-10-16T03:24:09.365Z,13.03
2018-10-16T03:26:37.997Z,12.60
2018-10-16T03:29:06.765Z,14.27
2018-10-16T03:31:35.132Z,12.27
2018-10-16T03:34:03.393Z,12.20
2018-10-16T03:36:31.667Z,13.63
2018-10-16T03:38:59.815Z,17.67
2018-10-16T03:41:28.125Z,17.07
2018-10-16T03:43:59.481Z,13.63
2018-10-16T03:46:28.163Z,13.57
2018-10-16T03:48:56.474Z,13.07
2018-10-16T03:51:25.071Z,13.30
2018-10-16T03:53:55.261Z,10.37
2018-10-16T03:56:23.768Z,11.67
2018-10-16T03:58:51.998Z,12.43
2018-10-16T04:01:20.598Z,15.77
2018-10-16T04:03:49.132Z,13.87
2018-10-16T04:06:17.260Z,14.23
2018-10-16T04:08:45.418Z,17.30
2018-10-16T04:11:13.586Z,13.23
2018-10-16T04:13:41.769Z,12.40
2018-10-16T04:16:09.977Z,17.73
2018-10-16T04:18:38.280Z,15.17
2018-10-16T04:21:06.911Z,15.80
2018-10-16T04:23:35.035Z,14.37
2018-10-16T04:26:03.394Z,13.00
2018-10-16T04:28:31.881Z,13.17
2018-10-16T04:31:00.020Z,13.70
2018-10-16T04:33:28.204Z,13.47
2018-10-16T04:35:56.352Z,12.33
2018-10-16T04:38:24.662Z,13.20
2018-10-16T04:40:53.010Z,13.37
2018-10-16T04:43:21.138Z,13.47
2018-10-16T04:45:49.969Z,15.63
2018-10-16T04:48:18.243Z,13.60
2018-10-16T04:50:46.436Z,17.17
2018-10-16T04:53:14.750Z,12.97
2018-10-16T04:55:42.926Z,13.30
2018-10-16T04:58:11.232Z,15.97
2018-10-16T05:00:39.473Z,14.30
2018-10-16T05:03:07.803Z,14.33
2018-10-16T05:05:35.986Z,14.17
2018-10-16T05:08:04.552Z,12.20
2018-10-16T05:10:32.676Z,15.67
2018-10-16T05:13:00.781Z,12.37
2018-10-16T05:15:30.159Z,16.47
2018-10-16T05:17:58.369Z,16.17
2018-10-16T05:20:26.577Z,12.03
2018-10-16T05:22:55.644Z,14.43
2018-10-16T05:25:24.639Z,16.17
2018-10-16T05:27:52.855Z,14.23
2018-10-16T05:30:20.981Z,15.73
2018-10-16T05:32:49.171Z,13.67
2018-10-16T05:35:17.279Z,19.47
2018-10-16T05:37:45.573Z,16.17
2018-10-16T05:40:13.716Z,16.23
2018-10-16T05:42:41.774Z,18.07
2018-10-16T05:45:11.447Z,12.73
2018-10-16T05:47:40.871Z,16.17
2018-10-16T05:50:09.509Z,18.37
2018-10-16T05:52:37.957Z,18.80
2018-10-16T05:55:06.603Z,15.67
2018-10-16T05:57:35.083Z,21.17
2018-10-16T06:00:20.521Z,22.73
2018-10-16T06:02:48.856Z,13.57
2018-10-16T06:05:17.047Z,16.27
2018-10-16T06:07:45.435Z,82.20
2018-10-16T06:10:13.740Z,50.07
2018-10-16T06:12:41.930Z,18.13
2018-10-16T06:15:10.804Z,14.43
2018-10-16T06:17:39.115Z,13.90
2018-10-16T06:20:10.801Z,16.43
2018-10-16T06:22:39.058Z,18.40
2018-10-16T06:25:08.050Z,13.57
2018-10-16T06:27:36.414Z,18.50
2018-10-16T06:30:05.028Z,15.70
2018-10-16T06:32:33.162Z,17.97
2018-10-16T06:35:01.956Z,21.47
2018-10-16T06:37:30.640Z,23.00
2018-10-16T06:39:58.896Z,13.60
2018-10-16T06:42:27.078Z,21.77
2018-10-16T06:44:55.225Z,24.20
2018-10-16T06:47:23.590Z,21.03
2018-10-16T06:49:51.701Z,16.13
2018-10-16T06:52:20.067Z,22.20
2018-10-16T06:54:48.346Z,16.37
2018-10-16T06:57:16.587Z,16.40
2018-10-16T06:59:45.005Z,12.43
2018-10-16T07:02:13.231Z,16.83
2018-10-16T07:04:41.365Z,22.10
2018-10-16T07:07:10.450Z,24.37
2018-10-16T07:09:38.732Z,27.03
2018-10-16T07:12:07.464Z,22.43
2018-10-16T07:14:35.618Z,16.97
2018-10-16T07:17:03.953Z,18.03
2018-10-16T07:19:32.147Z,16.43
2018-10-16T07:22:00.641Z,21.90
2018-10-16T07:24:28.865Z,19.87
2018-10-16T07:26:56.965Z,17.10
2018-10-16T07:29:25.270Z,16.90
2018-10-16T07:31:53.380Z,15.03
2018-10-16T07:34:21.694Z,20.40
2018-10-16T07:36:49.875Z,17.03
2018-10-16T07:39:18.185Z,18.77
2018-10-16T07:41:46.336Z,19.90
2018-10-16T07:44:14.617Z,16.63
2018-10-16T07:46:42.778Z,15.07
2018-10-16T07:49:10.976Z,16.77
2018-10-16T07:51:39.074Z,13.30
2018-10-16T07:54:07.470Z,16.03
2018-10-16T07:56:35.650Z,16.20
2018-10-16T07:59:04.349Z,15.43
2018-10-16T08:01:32.470Z,17.37
2018-10-16T08:04:00.627Z,13.77
2018-10-16T08:06:28.764Z,14.63
2018-10-16T08:08:56.852Z,15.33
2018-10-16T08:11:25.132Z,15.70
2018-10-16T08:13:53.396Z,15.90
2018-10-16T08:16:21.512Z,13.73
2018-10-16T08:18:49.591Z,15.27
2018-10-16T08:21:17.772Z,19.53
2018-10-16T08:23:45.930Z,13.73
2018-10-16T08:26:14.114Z,15.63
2018-10-16T08:28:42.218Z,16.10
2018-10-16T08:31:10.335Z,13.70
2018-10-16T08:33:38.502Z,14.47
2018-10-16T08:36:06.802Z,17.03
2018-10-16T08:39:29.160Z,11.63
2018-10-16T08:42:50.004Z,18.10
2018-10-16T08:45:35.389Z,18.23
2018-10-16T08:48:20.610Z,22.93
2018-10-16T08:51:06.028Z,16.13
2018-10-16T08:53:34.154Z,19.60
2018-10-16T08:56:02.329Z,18.23
2018-10-16T08:58:30.424Z,18.40
2018-10-16T09:00:58.629Z,16.27
2018-10-16T09:03:26.784Z,16.73
2018-10-16T09:05:54.955Z,18.90
2018-10-16T09:08:23.145Z,25.57
2018-10-16T09:10:51.267Z,14.30
2018-10-16T09:13:19.451Z,21.47
2018-10-16T09:15:48.319Z,15.53
2018-10-16T09:18:16.510Z,15.73
2018-10-16T09:20:44.657Z,18.37
2018-10-16T09:23:12.798Z,17.10
2018-10-16T09:25:40.938Z,20.40
2018-10-16T09:28:09.125Z,19.33
2018-10-16T09:30:37.298Z,18.33
2018-10-16T09:33:05.758Z,16.87
2018-10-16T09:35:34.020Z,16.53
2018-10-16T09:38:02.202Z,16.33
2018-10-16T09:40:30.357Z,22.03
2018-10-16T09:42:58.490Z,18.97
2018-10-16T09:45:26.700Z,18.37
2018-10-16T09:47:54.900Z,18.37
2018-10-16T09:50:23.042Z,16.07
2018-10-16T09:52:51.195Z,20.30
2018-10-16T09:55:19.352Z,15.80
2018-10-16T09:57:47.525Z,23.63
2018-10-16T10:00:21.426Z,18.93
2018-10-16T10:02:49.614Z,20.17
2018-10-16T10:05:17.739Z,16.93
2018-10-16T10:07:45.998Z,18.73
2018-10-16T10:10:14.167Z,21.47
2018-10-16T10:12:49.043Z,14.17
2018-10-16T10:15:17.153Z,21.17
2018-10-16T10:17:45.295Z,17.97
2018-10-16T10:20:13.490Z,18.60
2018-10-16T10:22:41.675Z,20.48
2018-10-16T10:25:09.960Z,14.63
2018-10-16T10:27:38.145Z,14.85
2018-10-16T10:30:10.124Z,18.75
2018-10-16T10:32:38.308Z,15.93
2018-10-16T10:35:08.614Z,16.50
2018-10-16T10:37:36.791Z,15.10
2018-10-16T10:40:05.405Z,13.85
2018-10-16T10:42:33.607Z,18.27
2018-10-16T10:45:02.013Z,13.98
2018-10-16T10:47:30.293Z,16.48
2018-10-16T10:49:58.535Z,31.33
2018-10-16T10:52:26.642Z,17.48
2018-10-16T10:54:54.768Z,18.35
2018-10-16T10:57:22.875Z,13.28
2018-10-16T10:59:51.042Z,15.77
2018-10-16T11:02:19.161Z,16.12
2018-10-16T11:04:47.344Z,16.48
2018-10-16T11:07:15.476Z,15.27
2018-10-16T11:09:43.623Z,27.80
2018-10-16T11:12:11.743Z,31.53
2018-10-16T11:14:46.703Z,18.17
2018-10-16T11:17:14.857Z,21.43
2018-10-16T11:19:43.027Z,26.07
2018-10-16T11:22:12.051Z,16.77
2018-10-16T11:24:40.185Z,15.00
2018-10-16T11:27:08.399Z,19.47
2018-10-16T11:29:36.525Z,18.47
2018-10-16T11:32:04.789Z,18.03
2018-10-16T11:34:32.985Z,21.90
2018-10-16T11:37:01.223Z,20.00
2018-10-16T11:39:29.340Z,19.30
2018-10-16T11:41:57.765Z,15.60
2018-10-16T11:44:25.943Z,20.40
2018-10-16T11:46:54.111Z,20.17
2018-10-16T11:49:22.280Z,18.37
2018-10-16T11:51:50.472Z,16.87
2018-10-16T11:54:18.644Z,21.47
2018-10-16T11:56:46.791Z,18.70
2018-10-16T11:59:14.964Z,16.17
2018-10-16T12:01:43.151Z,33.60
2018-10-16T12:04:11.249Z,16.13
2018-10-16T12:06:39.399Z,17.93
2018-10-16T12:09:09.110Z,20.70
2018-10-16T12:11:38.097Z,18.80
2018-10-16T12:14:06.995Z,17.83
2018-10-16T12:16:39.706Z,18.53
2018-10-16T12:19:13.246Z,15.53
2018-10-16T12:21:41.388Z,16.80
2018-10-16T12:24:09.596Z,15.70
2018-10-16T12:26:37.718Z,18.67
2018-10-16T12:29:05.949Z,17.07
2018-10-16T12:31:34.104Z,16.23
2018-10-16T12:34:02.285Z,18.07
2018-10-16T12:36:30.516Z,17.57
2018-10-16T12:38:58.720Z,18.10
2018-10-16T12:41:26.917Z,19.73
2018-10-16T12:43:55.178Z,18.20
2018-10-16T12:46:23.322Z,30.07
2018-10-16T12:48:51.500Z,27.33
2018-10-16T12:51:19.757Z,20.07
2018-10-16T12:53:47.913Z,19.10
2018-10-16T12:56:16.168Z,23.33
2018-10-16T12:58:44.217Z,18.93
2018-10-16T13:01:12.371Z,20.10
2018-10-16T13:03:40.641Z,33.33
2018-10-16T13:06:08.750Z,23.20
2018-10-16T13:08:36.960Z,24.67
2018-10-16T13:11:05.377Z,21.77
2018-10-16T13:13:33.392Z,26.53
2018-10-16T13:16:01.521Z,21.00
2018-10-16T13:18:29.584Z,26.27
2018-10-16T13:20:57.747Z,26.03
2018-10-16T13:23:25.980Z,25.20
2018-10-16T13:25:54.151Z,35.07
2018-10-16T13:28:22.308Z,17.93
2018-10-16T13:30:50.474Z,24.63
2018-10-16T13:33:18.704Z,21.93
2018-10-16T13:35:46.855Z,24.93
2018-10-16T13:38:15.759Z,22.37
2018-10-16T13:40:43.910Z,23.70
2018-10-16T13:43:12.072Z,23.93
2018-10-16T13:45:40.233Z,20.33
2018-10-16T13:48:08.399Z,25.70
2018-10-16T13:50:36.465Z,23.30
2018-10-16T13:53:04.991Z,22.23
2018-10-16T13:55:33.103Z,25.43
2018-10-16T13:58:01.288Z,26.07
2018-10-16T14:00:29.440Z,21.33
2018-10-16T14:02:57.593Z,21.23
2018-10-16T14:05:25.816Z,20.80
2018-10-16T14:07:53.991Z,22.80
2018-10-16T14:10:22.210Z,28.27
2018-10-16T14:12:50.409Z,24.47
2018-10-16T14:15:18.614Z,20.97
2018-10-16T14:17:46.782Z,25.10
2018-10-16T14:20:15.042Z,23.07
2018-10-16T14:22:43.543Z,27.33
2018-10-16T14:25:13.060Z,26.63
2018-10-16T14:27:41.590Z,22.90
2018-10-16T14:30:11.593Z,21.73
2018-10-16T14:32:40.127Z,22.27
2018-10-16T14:35:09.254Z,21.03
2018-10-16T14:37:38.015Z,26.37
2018-10-16T14:40:08.128Z,27.70
2018-10-16T14:42:36.262Z,20.87
2018-10-16T14:45:05.339Z,23.13
2018-10-16T14:47:33.554Z,23.00
2018-10-16T14:50:01.822Z,21.00
2018-10-16T14:52:29.918Z,21.03
2018-10-16T14:54:58.145Z,27.77
2018-10-16T14:57:26.362Z,26.17
2018-10-16T14:59:55.180Z,20.27
2018-10-16T15:02:23.305Z,18.77
2018-10-16T15:04:51.610Z,21.07
2018-10-16T15:07:19.845Z,21.03
2018-10-16T15:09:48.006Z,21.20
2018-10-16T15:12:16.138Z,24.07
2018-10-16T15:14:44.306Z,21.50
2018-10-16T15:17:12.501Z,22.57
2018-10-16T15:19:40.695Z,21.10
2018-10-16T15:22:08.889Z,24.90
2018-10-16T15:24:37.068Z,22.20
2018-10-16T15:27:05.279Z,22.40
2018-10-16T15:29:40.138Z,22.10
2018-10-16T15:32:08.575Z,23.97
2018-10-16T15:34:36.653Z,23.17
2018-10-16T15:37:05.577Z,22.47
2018-10-16T15:39:33.741Z,20.93
2018-10-16T15:42:02.148Z,21.30
2018-10-16T15:44:30.314Z,24.70
2018-10-16T15:46:58.567Z,27.30
2018-10-16T15:49:26.765Z,24.53
2018-10-16T15:51:54.911Z,21.30
2018-10-16T15:54:23.380Z,23.33
2018-10-16T15:56:52.609Z,18.03
2018-10-16T15:59:20.841Z,22.30
2018-10-16T16:01:49.214Z,23.00
2018-10-16T16:04:17.440Z,22.43
2018-10-16T16:06:45.790Z,25.23
2018-10-16T16:09:14.186Z,20.87
2018-10-16T16:11:42.528Z,24.07
2018-10-16T16:14:10.754Z,21.97
2018-10-16T16:16:38.867Z,25.47
2018-10-16T16:19:07.224Z,18.83
2018-10-16T16:21:35.596Z,22.80
2018-10-16T16:24:03.950Z,23.67
2018-10-16T16:26:32.102Z,24.07
2018-10-16T16:29:00.259Z,27.43
2018-10-16T16:31:28.419Z,22.33
2018-10-16T16:33:56.642Z,23.37
2018-10-16T16:36:24.769Z,24.33
2018-10-16T16:38:53.161Z,24.27
2018-10-16T16:41:21.335Z,24.53
2018-10-16T16:43:49.518Z,23.77
2018-10-16T16:46:17.621Z,23.43
2018-10-16T16:48:45.969Z,31.07
2018-10-16T16:51:14.335Z,24.63
2018-10-16T16:53:42.432Z,25.10
2018-10-16T16:56:10.670Z,20.60
2018-10-16T16:58:38.818Z,22.97
2018-10-16T17:01:06.976Z,22.17
2018-10-16T17:03:35.159Z,21.97
2018-10-16T17:06:03.426Z,24.00
2018-10-16T17:08:31.605Z,23.20
2018-10-16T17:10:59.772Z,21.30
2018-10-16T17:13:27.945Z,23.73
2018-10-16T17:15:56.954Z,24.17
2018-10-16T17:18:25.090Z,27.60
2018-10-16T17:20:53.184Z,24.13
2018-10-16T17:23:21.368Z,27.33
2018-10-16T17:25:49.911Z,28.90
2018-10-16T17:28:17.801Z,27.50
2018-10-16T17:30:45.946Z,22.13
2018-10-16T17:33:14.266Z,27.10
2018-10-16T17:35:42.332Z,23.50
2018-10-16T17:38:10.543Z,23.23
2018-10-16T17:40:39.194Z,27.00
2018-10-16T17:43:07.329Z,31.70
2018-10-16T17:45:35.449Z,23.60
2018-10-16T17:48:03.837Z,26.87
2018-10-16T17:50:32.109Z,28.20
2018-10-16T17:53:00.304Z,28.13
2018-10-16T17:55:28.491Z,25.60
2018-10-16T17:58:03.058Z,24.97
2018-10-16T18:00:31.300Z,27.03
2018-10-16T18:02:59.456Z,23.30
2018-10-16T18:05:27.617Z,28.73
2018-10-16T18:07:55.793Z,23.93
2018-10-16T18:10:23.985Z,30.30
2018-10-16T18:12:52.164Z,32.67
2018-10-16T18:15:20.951Z,31.27
2018-10-16T18:17:49.137Z,24.47
2018-10-16T18:20:17.323Z,24.57
2018-10-16T18:22:45.773Z,31.57
2018-10-16T18:25:13.905Z,30.57
2018-10-16T18:27:43.028Z,33.63
2018-10-16T18:30:11.449Z,26.37
2018-10-16T18:32:39.866Z,27.87
2018-10-16T18:35:08.457Z,28.03
2018-10-16T18:37:36.675Z,28.43
2018-10-16T18:40:07.004Z,32.60
2018-10-16T18:42:35.152Z,27.00
2018-10-16T18:45:04.299Z,28.73
2018-10-16T18:47:32.484Z,27.53
2018-10-16T18:50:00.677Z,28.73
2018-10-16T18:52:29.547Z,28.87
2018-10-16T18:54:57.761Z,31.07
2018-10-16T18:57:25.949Z,31.63
2018-10-16T18:59:54.802Z,30.50
2018-10-16T19:02:23.241Z,28.53
2018-10-16T19:04:51.454Z,30.57
2018-10-16T19:07:19.649Z,32.03
2018-10-16T19:09:47.902Z,29.90
2018-10-16T19:12:16.122Z,31.47
2018-10-16T19:14:44.426Z,34.50
2018-10-16T19:17:12.634Z,30.90
2018-10-16T19:19:40.922Z,30.60
2018-10-16T19:22:09.152Z,30.37
2018-10-16T19:24:37.674Z,30.20
2018-10-16T19:27:06.339Z,30.73
2018-10-16T19:29:35.234Z,29.97
2018-10-16T19:32:03.671Z,29.63
2018-10-16T19:34:31.890Z,28.53
2018-10-16T19:37:00.627Z,33.77
2018-10-16T19:39:28.974Z,30.90
2018-10-16T19:41:57.224Z,27.27
2018-10-16T19:44:25.596Z,27.07
2018-10-16T19:46:53.922Z,27.53
2018-10-16T19:49:22.096Z,31.03
2018-10-16T19:51:50.288Z,31.77
2018-10-16T19:54:18.637Z,30.50
2018-10-16T19:56:46.867Z,31.97
2018-10-16T19:59:15.037Z,29.30
2018-10-16T20:01:43.299Z,36.17
2018-10-16T20:04:12.027Z,34.47
2018-10-16T20:06:40.180Z,33.93
2018-10-16T20:09:10.208Z,36.13
2018-10-16T20:11:38.442Z,30.57
2018-10-16T20:14:07.405Z,34.97
2018-10-16T20:16:35.561Z,30.10
2018-10-16T20:19:03.919Z,32.37
2018-10-16T20:21:33.113Z,29.23
2018-10-16T20:24:01.342Z,29.97
2018-10-16T20:26:29.614Z,33.53
2018-10-16T20:28:57.860Z,28.93
2018-10-16T20:31:26.027Z,32.53
2018-10-16T20:33:54.246Z,31.63
2018-10-16T20:36:22.437Z,36.57
2018-10-16T20:38:51.186Z,30.83
2018-10-16T20:41:19.450Z,28.37
2018-10-16T20:43:47.671Z,31.20
2018-10-16T20:46:15.916Z,31.37
2018-10-16T20:48:44.220Z,36.93
2018-10-16T20:51:12.415Z,33.83
2018-10-16T20:53:40.558Z,33.03
2018-10-16T20:56:09.429Z,33.47
2018-10-16T20:58:37.570Z,32.13
2018-10-16T21:01:07.021Z,31.30
2018-10-16T21:03:35.218Z,30.00
2018-10-16T21:06:05.279Z,32.77
2018-10-16T21:08:33.475Z,28.53
2018-10-16T21:11:01.616Z,35.70
2018-10-16T21:13:29.812Z,36.30
2018-10-16T21:15:59.248Z,30.90
2018-10-16T21:18:28.339Z,36.17
2018-10-16T21:20:57.073Z,30.40
2018-10-16T21:23:25.202Z,28.13
2018-10-16T21:25:53.804Z,28.33
2018-10-16T21:28:22.026Z,33.73
2018-10-16T21:30:50.192Z,32.33
2018-10-16T21:33:18.326Z,32.70
2018-10-16T21:35:46.469Z,35.00
2018-10-16T21:38:15.294Z,34.23
2018-10-16T21:40:43.458Z,34.30
2018-10-16T21:43:11.780Z,38.50
2018-10-16T21:45:39.895Z,32.13
2018-10-16T21:48:08.300Z,34.53
2018-10-16T21:50:36.452Z,37.23
2018-10-16T21:53:04.688Z,38.37
2018-10-16T21:55:32.800Z,32.83
2018-10-16T21:58:01.201Z,32.77
2018-10-16T22:00:37.924Z,38.47
2018-10-16T22:03:06.272Z,36.47
2018-10-16T22:05:34.554Z,30.00
2018-10-16T22:08:02.782Z,31.80
2018-10-16T22:10:31.458Z,33.63
2018-10-16T22:12:59.612Z,31.87
2018-10-16T22:15:27.797Z,39.90
2018-10-16T22:17:55.961Z,35.33
2018-10-16T22:20:24.102Z,37.90
2018-10-16T22:22:52.356Z,32.67
2018-10-16T22:25:21.054Z,36.20
2018-10-16T22:27:49.215Z,35.03
2018-10-16T22:30:17.428Z,35.70
2018-10-16T22:32:46.175Z,31.87
2018-10-16T22:35:14.595Z,35.47
2018-10-16T22:37:43.317Z,36.23
2018-10-16T22:40:11.494Z,32.93
2018-10-16T22:42:39.653Z,31.97
2018-10-16T22:45:08.415Z,36.73
2018-10-16T22:47:36.639Z,32.93
2018-10-16T22:50:08.600Z,28.90
2018-10-16T22:52:36.711Z,29.10
2018-10-16T22:55:06.146Z,34.20
2018-10-16T22:57:34.175Z,34.40
2018-10-16T23:00:02.483Z,36.17
2018-10-16T23:02:30.620Z,31.00
2018-10-16T23:04:59.683Z,27.17
2018-10-16T23:07:27.779Z,30.60
2018-10-16T23:09:57.085Z,29.40
2018-10-16T23:12:26.187Z,31.00
2018-10-16T23:14:55.147Z,28.37
2018-10-16T23:17:23.299Z,34.67
2018-10-16T23:19:51.472Z,34.63
2018-10-16T23:22:20.294Z,32.07
2018-10-16T23:24:48.592Z,30.70
2018-10-16T23:27:16.837Z,31.07
2018-10-16T23:29:45.251Z,29.30
2018-10-16T23:32:13.370Z,29.67
2018-10-16T23:34:41.657Z,33.33
2018-10-16T23:37:09.991Z,35.20
2018-10-16T23:39:38.092Z,33.90
2018-10-16T23:42:06.459Z,33.67
2018-10-16T23:44:34.570Z,33.90
2018-10-16T23:47:02.962Z,32.33
2018-10-16T23:49:31.170Z,36.83
2018-10-16T23:51:59.462Z,34.97
2018-10-16T23:54:27.780Z,33.03
2018-10-16T23:56:56.124Z,29.27
2018-10-16T23:59:24.238Z,30.53
